sensor_id;sensor_type;location;lat;lon;timestamp;P1;durP1;ratioP1;P2;durP2;ratioP2
63012;SDS011;62113;45.624;11.700;2024-03-22T00:00:19;169.17;;;79.67;;
63012;SDS011;62113;45.624;11.700;2024-03-22T00:02:45;135.70;;;67.97;;
63012;SDS011;62113;45.624;11.700;2024-03-22T00:05:10;124.70;;;61.53;;
63012;SDS011;62113;45.624;11.700;2024-03-22T00:07:36;106.13;;;58.63;;
63012;SDS011;62113;45.624;11.700;2024-03-22T00:10:03;108.72;;;58.15;;
63012;SDS011;62113;45.624;11.700;2024-03-22T00:12:30;97.13;;;51.20;;
63012;SDS011;62113;45.624;11.700;2024-03-22T00:14:56;95.43;;;50.90;;
63012;SDS011;62113;45.624;11.700;2024-03-22T00:17:21;97.80;;;50.43;;
63012;SDS011;62113;45.624;11.700;2024-03-22T00:19:47;93.70;;;49.33;;
63012;SDS011;62113;45.624;11.700;2024-03-22T00:22:12;96.37;;;48.97;;
63012;SDS011;62113;45.624;11.700;2024-03-22T00:24:38;97.73;;;53.23;;
63012;SDS011;62113;45.624;11.700;2024-03-22T00:27:04;109.30;;;55.20;;
63012;SDS011;62113;45.624;11.700;2024-03-22T00:29:29;99.83;;;53.30;;
63012;SDS011;62113;45.624;11.700;2024-03-22T00:31:55;80.90;;;45.20;;
63012;SDS011;62113;45.624;11.700;2024-03-22T00:34:20;78.47;;;43.57;;
63012;SDS011;62113;45.624;11.700;2024-03-22T00:36:46;221.43;;;106.70;;
63012;SDS011;62113;45.624;11.700;2024-03-22T00:39:12;160.27;;;78.47;;
63012;SDS011;62113;45.624;11.700;2024-03-22T00:41:37;82.63;;;44.43;;
63012;SDS011;62113;45.624;11.700;2024-03-22T00:44:04;77.22;;;39.53;;
63012;SDS011;62113;45.624;11.700;2024-03-22T00:46:29;56.90;;;35.73;;
63012;SDS011;62113;45.624;11.700;2024-03-22T00:48:55;54.37;;;33.90;;
63012;SDS011;62113;45.624;11.700;2024-03-22T00:51:20;128.53;;;62.07;;
63012;SDS011;62113;45.624;11.700;2024-03-22T00:53:47;186.15;;;85.90;;
63012;SDS011;62113;45.624;11.700;2024-03-22T00:56:12;120.63;;;57.63;;
63012;SDS011;62113;45.624;11.700;2024-03-22T00:58:38;89.50;;;45.33;;
63012;SDS011;62113;45.624;11.700;2024-03-22T01:01:03;67.83;;;38.87;;
63012;SDS011;62113;45.624;11.700;2024-03-22T01:03:29;65.22;;;36.53;;
63012;SDS011;62113;45.624;11.700;2024-03-22T01:05:55;60.00;;;35.73;;
63012;SDS011;62113;45.624;11.700;2024-03-22T01:08:22;66.15;;;38.63;;
63012;SDS011;62113;45.624;11.700;2024-03-22T01:10:48;78.43;;;41.37;;
63012;SDS011;62113;45.624;11.700;2024-03-22T01:13:13;71.93;;;41.03;;
63012;SDS011;62113;45.624;11.700;2024-03-22T01:15:39;88.25;;;42.00;;
63012;SDS011;62113;45.624;11.700;2024-03-22T01:18:04;106.40;;;47.10;;
63012;SDS011;62113;45.624;11.700;2024-03-22T01:20:30;119.93;;;48.57;;
63012;SDS011;62113;45.624;11.700;2024-03-22T01:22:56;90.17;;;43.17;;
63012;SDS011;62113;45.624;11.700;2024-03-22T01:25:21;98.23;;;48.13;;
63012;SDS011;62113;45.624;11.700;2024-03-22T01:27:47;101.32;;;47.20;;
63012;SDS011;62113;45.624;11.700;2024-03-22T01:30:13;120.10;;;52.38;;
63012;SDS011;62113;45.624;11.700;2024-03-22T01:32:38;111.53;;;52.03;;
63012;SDS011;62113;45.624;11.700;2024-03-22T01:35:04;91.33;;;44.93;;
63012;SDS011;62113;45.624;11.700;2024-03-22T01:37:30;86.83;;;44.43;;
63012;SDS011;62113;45.624;11.700;2024-03-22T01:39:55;127.47;;;53.10;;
63012;SDS011;62113;45.624;11.700;2024-03-22T01:42:21;63.63;;;36.63;;
63012;SDS011;62113;45.624;11.700;2024-03-22T01:44:48;66.47;;;36.63;;
63012;SDS011;62113;45.624;11.700;2024-03-22T01:47:14;62.40;;;35.83;;
63012;SDS011;62113;45.624;11.700;2024-03-22T01:49:40;61.50;;;36.00;;
63012;SDS011;62113;45.624;11.700;2024-03-22T01:52:07;60.95;;;34.05;;
63012;SDS011;62113;45.624;11.700;2024-03-22T01:54:33;57.53;;;35.37;;
63012;SDS011;62113;45.624;11.700;2024-03-22T01:56:58;57.40;;;33.08;;
63012;SDS011;62113;45.624;11.700;2024-03-22T01:59:25;50.05;;;31.65;;
63012;SDS011;62113;45.624;11.700;2024-03-22T02:01:51;54.03;;;32.13;;
63012;SDS011;62113;45.624;11.700;2024-03-22T02:04:17;54.87;;;30.43;;
63012;SDS011;62113;45.624;11.700;2024-03-22T02:06:42;48.57;;;29.93;;
63012;SDS011;62113;45.624;11.700;2024-03-22T02:09:08;53.23;;;31.87;;
63012;SDS011;62113;45.624;11.700;2024-03-22T02:11:34;69.13;;;36.45;;
63012;SDS011;62113;45.624;11.700;2024-03-22T02:14:02;88.82;;;40.55;;
63012;SDS011;62113;45.624;11.700;2024-03-22T02:16:29;53.95;;;32.38;;
63012;SDS011;62113;45.624;11.700;2024-03-22T02:18:55;55.03;;;30.65;;
63012;SDS011;62113;45.624;11.700;2024-03-22T02:21:20;51.53;;;29.98;;
63012;SDS011;62113;45.624;11.700;2024-03-22T02:23:46;48.97;;;29.30;;
63012;SDS011;62113;45.624;11.700;2024-03-22T02:26:12;45.57;;;27.57;;
63012;SDS011;62113;45.624;11.700;2024-03-22T02:28:37;45.15;;;26.63;;
63012;SDS011;62113;45.624;11.700;2024-03-22T02:31:03;47.70;;;27.70;;
63012;SDS011;62113;45.624;11.700;2024-03-22T02:33:29;43.27;;;26.10;;
63012;SDS011;62113;45.624;11.700;2024-03-22T02:35:55;46.10;;;27.77;;
63012;SDS011;62113;45.624;11.700;2024-03-22T02:38:21;47.78;;;27.17;;
63012;SDS011;62113;45.624;11.700;2024-03-22T02:40:48;43.73;;;27.00;;
63012;SDS011;62113;45.624;11.700;2024-03-22T02:43:14;48.95;;;27.60;;
63012;SDS011;62113;45.624;11.700;2024-03-22T02:45:40;49.58;;;29.25;;
63012;SDS011;62113;45.624;11.700;2024-03-22T02:48:06;47.55;;;28.77;;
63012;SDS011;62113;45.624;11.700;2024-03-22T02:50:35;56.65;;;30.00;;
63012;SDS011;62113;45.624;11.700;2024-03-22T02:53:02;70.28;;;34.72;;
63012;SDS011;62113;45.624;11.700;2024-03-22T02:55:28;106.25;;;44.45;;
63012;SDS011;62113;45.624;11.700;2024-03-22T02:57:55;144.07;;;68.97;;
63012;SDS011;62113;45.624;11.700;2024-03-22T03:00:21;90.25;;;44.40;;
63012;SDS011;62113;45.624;11.700;2024-03-22T03:02:47;50.15;;;30.98;;
63012;SDS011;62113;45.624;11.700;2024-03-22T03:05:13;64.33;;;35.03;;
63012;SDS011;62113;45.624;11.700;2024-03-22T03:07:39;59.73;;;31.57;;
63012;SDS011;62113;45.624;11.700;2024-03-22T03:10:05;55.70;;;31.90;;
63012;SDS011;62113;45.624;11.700;2024-03-22T03:12:31;67.50;;;36.03;;
63012;SDS011;62113;45.624;11.700;2024-03-22T03:14:57;73.13;;;35.20;;
63012;SDS011;62113;45.624;11.700;2024-03-22T03:17:22;51.27;;;30.13;;
63012;SDS011;62113;45.624;11.700;2024-03-22T03:19:48;50.93;;;28.73;;
63012;SDS011;62113;45.624;11.700;2024-03-22T03:22:14;46.93;;;29.00;;
63012;SDS011;62113;45.624;11.700;2024-03-22T03:24:40;43.65;;;26.10;;
63012;SDS011;62113;45.624;11.700;2024-03-22T03:27:05;66.43;;;31.73;;
63012;SDS011;62113;45.624;11.700;2024-03-22T03:29:31;74.03;;;36.73;;
63012;SDS011;62113;45.624;11.700;2024-03-22T03:31:56;72.22;;;37.10;;
63012;SDS011;62113;45.624;11.700;2024-03-22T03:34:22;61.47;;;32.75;;
63012;SDS011;62113;45.624;11.700;2024-03-22T03:36:48;57.03;;;28.27;;
63012;SDS011;62113;45.624;11.700;2024-03-22T03:39:13;54.37;;;26.53;;
63012;SDS011;62113;45.624;11.700;2024-03-22T03:41:39;51.63;;;28.67;;
63012;SDS011;62113;45.624;11.700;2024-03-22T03:44:04;57.03;;;30.17;;
63012;SDS011;62113;45.624;11.700;2024-03-22T03:46:30;51.80;;;26.20;;
63012;SDS011;62113;45.624;11.700;2024-03-22T03:48:56;48.65;;;27.15;;
63012;SDS011;62113;45.624;11.700;2024-03-22T03:51:22;47.50;;;25.37;;
63012;SDS011;62113;45.624;11.700;2024-03-22T03:53:47;43.53;;;24.97;;
63012;SDS011;62113;45.624;11.700;2024-03-22T03:56:13;32.57;;;20.27;;
63012;SDS011;62113;45.624;11.700;2024-03-22T03:58:38;31.10;;;17.50;;
63012;SDS011;62113;45.624;11.700;2024-03-22T04:01:07;28.88;;;16.17;;
63012;SDS011;62113;45.624;11.700;2024-03-22T04:03:34;26.50;;;15.60;;
63012;SDS011;62113;45.624;11.700;2024-03-22T04:06:00;29.27;;;16.10;;
63012;SDS011;62113;45.624;11.700;2024-03-22T04:08:26;38.05;;;18.20;;
63012;SDS011;62113;45.624;11.700;2024-03-22T04:10:52;32.67;;;16.93;;
63012;SDS011;62113;45.624;11.700;2024-03-22T04:13:18;28.88;;;17.40;;
63012;SDS011;62113;45.624;11.700;2024-03-22T04:15:44;35.00;;;17.57;;
63012;SDS011;62113;45.624;11.700;2024-03-22T04:18:09;39.67;;;17.15;;
63012;SDS011;62113;45.624;11.700;2024-03-22T04:20:35;34.63;;;16.43;;
63012;SDS011;62113;45.624;11.700;2024-03-22T04:23:01;30.63;;;15.83;;
63012;SDS011;62113;45.624;11.700;2024-03-22T04:25:26;27.10;;;13.98;;
63012;SDS011;62113;45.624;11.700;2024-03-22T04:27:52;24.25;;;14.80;;
63012;SDS011;62113;45.624;11.700;2024-03-22T04:30:18;27.50;;;14.57;;
63012;SDS011;62113;45.624;11.700;2024-03-22T04:32:45;25.63;;;13.97;;
63012;SDS011;62113;45.624;11.700;2024-03-22T04:35:11;31.75;;;15.30;;
63012;SDS011;62113;45.624;11.700;2024-03-22T04:37:37;27.05;;;14.65;;
63012;SDS011;62113;45.624;11.700;2024-03-22T04:40:03;25.10;;;13.07;;
63012;SDS011;62113;45.624;11.700;2024-03-22T04:42:29;18.85;;;10.80;;
63012;SDS011;62113;45.624;11.700;2024-03-22T04:44:54;15.88;;;10.15;;
63012;SDS011;62113;45.624;11.700;2024-03-22T04:47:20;35.27;;;14.30;;
63012;SDS011;62113;45.624;11.700;2024-03-22T04:49:45;30.77;;;12.73;;
63012;SDS011;62113;45.624;11.700;2024-03-22T04:52:11;21.73;;;11.07;;
63012;SDS011;62113;45.624;11.700;2024-03-22T04:54:37;42.97;;;17.83;;
63012;SDS011;62113;45.624;11.700;2024-03-22T04:57:02;45.80;;;21.20;;
63012;SDS011;62113;45.624;11.700;2024-03-22T04:59:28;37.97;;;17.00;;
63012;SDS011;62113;45.624;11.700;2024-03-22T05:01:54;18.70;;;11.73;;
63012;SDS011;62113;45.624;11.700;2024-03-22T05:04:19;18.50;;;11.03;;
63012;SDS011;62113;45.624;11.700;2024-03-22T05:06:45;15.70;;;10.73;;
63012;SDS011;62113;45.624;11.700;2024-03-22T05:09:10;43.93;;;21.17;;
63012;SDS011;62113;45.624;11.700;2024-03-22T05:11:36;68.97;;;24.07;;
63012;SDS011;62113;45.624;11.700;2024-03-22T05:14:01;58.70;;;22.77;;
63012;SDS011;62113;45.624;11.700;2024-03-22T05:16:27;58.33;;;18.40;;
63012;SDS011;62113;45.624;11.700;2024-03-22T05:18:53;32.25;;;14.55;;
63012;SDS011;62113;45.624;11.700;2024-03-22T05:21:19;17.55;;;10.43;;
63012;SDS011;62113;45.624;11.700;2024-03-22T05:23:44;18.95;;;11.23;;
63012;SDS011;62113;45.624;11.700;2024-03-22T05:26:10;25.03;;;11.00;;
63012;SDS011;62113;45.624;11.700;2024-03-22T05:28:36;16.48;;;10.20;;
63012;SDS011;62113;45.624;11.700;2024-03-22T05:31:01;19.90;;;9.30;;
63012;SDS011;62113;45.624;11.700;2024-03-22T05:33:27;12.83;;;9.43;;
63012;SDS011;62113;45.624;11.700;2024-03-22T05:35:53;24.38;;;9.07;;
63012;SDS011;62113;45.624;11.700;2024-03-22T05:38:19;16.52;;;8.85;;
63012;SDS011;62113;45.624;11.700;2024-03-22T05:40:44;17.33;;;9.40;;
63012;SDS011;62113;45.624;11.700;2024-03-22T05:43:12;21.50;;;10.98;;
63012;SDS011;62113;45.624;11.700;2024-03-22T05:45:38;22.90;;;10.82;;
63012;SDS011;62113;45.624;11.700;2024-03-22T05:48:04;40.25;;;13.10;;
63012;SDS011;62113;45.624;11.700;2024-03-22T05:50:30;26.07;;;11.23;;
63012;SDS011;62113;45.624;11.700;2024-03-22T05:52:55;27.03;;;10.30;;
63012;SDS011;62113;45.624;11.700;2024-03-22T05:55:21;15.87;;;7.77;;
63012;SDS011;62113;45.624;11.700;2024-03-22T05:57:47;12.43;;;8.47;;
63012;SDS011;62113;45.624;11.700;2024-03-22T06:00:12;20.03;;;8.53;;
63012;SDS011;62113;45.624;11.700;2024-03-22T06:02:38;10.80;;;6.67;;
63012;SDS011;62113;45.624;11.700;2024-03-22T06:05:04;8.47;;;6.40;;
63012;SDS011;62113;45.624;11.700;2024-03-22T06:07:30;13.47;;;6.93;;
63012;SDS011;62113;45.624;11.700;2024-03-22T06:10:04;11.90;;;7.00;;
63012;SDS011;62113;45.624;11.700;2024-03-22T06:12:30;14.40;;;7.00;;
63012;SDS011;62113;45.624;11.700;2024-03-22T06:14:55;11.33;;;6.83;;
63012;SDS011;62113;45.624;11.700;2024-03-22T06:17:21;17.42;;;7.55;;
63012;SDS011;62113;45.624;11.700;2024-03-22T06:19:47;14.30;;;7.80;;
63012;SDS011;62113;45.624;11.700;2024-03-22T06:22:12;13.47;;;8.37;;
63012;SDS011;62113;45.624;11.700;2024-03-22T06:24:38;12.37;;;7.87;;
63012;SDS011;62113;45.624;11.700;2024-03-22T06:27:04;13.53;;;7.30;;
63012;SDS011;62113;45.624;11.700;2024-03-22T06:29:29;18.10;;;7.65;;
63012;SDS011;62113;45.624;11.700;2024-03-22T06:31:55;13.83;;;7.27;;
63012;SDS011;62113;45.624;11.700;2024-03-22T06:34:21;18.77;;;6.77;;
63012;SDS011;62113;45.624;11.700;2024-03-22T06:36:46;11.90;;;7.43;;
63012;SDS011;62113;45.624;11.700;2024-03-22T06:39:12;25.17;;;7.47;;
63012;SDS011;62113;45.624;11.700;2024-03-22T06:41:38;13.53;;;6.53;;
63012;SDS011;62113;45.624;11.700;2024-03-22T06:44:03;19.37;;;6.50;;
63012;SDS011;62113;45.624;11.700;2024-03-22T06:46:29;12.27;;;6.03;;
63012;SDS011;62113;45.624;11.700;2024-03-22T06:48:55;8.07;;;5.60;;
63012;SDS011;62113;45.624;11.700;2024-03-22T06:51:21;11.02;;;6.05;;
63012;SDS011;62113;45.624;11.700;2024-03-22T06:53:46;10.35;;;6.03;;
63012;SDS011;62113;45.624;11.700;2024-03-22T06:56:13;15.73;;;6.10;;
63012;SDS011;62113;45.624;11.700;2024-03-22T06:58:39;9.88;;;5.93;;
63012;SDS011;62113;45.624;11.700;2024-03-22T07:01:05;9.88;;;5.60;;
63012;SDS011;62113;45.624;11.700;2024-03-22T07:03:31;9.77;;;6.28;;
63012;SDS011;62113;45.624;11.700;2024-03-22T07:05:56;9.63;;;6.90;;
63012;SDS011;62113;45.624;11.700;2024-03-22T07:08:22;13.45;;;5.85;;
63012;SDS011;62113;45.624;11.700;2024-03-22T07:10:49;8.70;;;6.18;;
63012;SDS011;62113;45.624;11.700;2024-03-22T07:13:15;6.85;;;5.88;;
63012;SDS011;62113;45.624;11.700;2024-03-22T07:15:40;13.63;;;5.82;;
63012;SDS011;62113;45.624;11.700;2024-03-22T07:22:57;14.80;;;5.55;;
63012;SDS011;62113;45.624;11.700;2024-03-22T07:30:14;8.20;;;4.78;;
63012;SDS011;62113;45.624;11.700;2024-03-22T07:35:05;12.05;;;5.15;;
63012;SDS011;62113;45.624;11.700;2024-03-22T07:37:32;12.68;;;6.22;;
63012;SDS011;62113;45.624;11.700;2024-03-22T07:39:59;7.68;;;5.15;;
63012;SDS011;62113;45.624;11.700;2024-03-22T07:42:25;12.98;;;5.45;;
63012;SDS011;62113;45.624;11.700;2024-03-22T07:44:50;11.57;;;5.07;;
63012;SDS011;62113;45.624;11.700;2024-03-22T07:47:16;9.00;;;4.72;;
63012;SDS011;62113;45.624;11.700;2024-03-22T07:49:41;6.80;;;5.05;;
63012;SDS011;62113;45.624;11.700;2024-03-22T07:52:07;14.65;;;4.75;;
63012;SDS011;62113;45.624;11.700;2024-03-22T07:54:33;12.93;;;5.60;;
63012;SDS011;62113;45.624;11.700;2024-03-22T07:56:58;9.27;;;4.88;;
63012;SDS011;62113;45.624;11.700;2024-03-22T07:59:24;7.28;;;5.20;;
63012;SDS011;62113;45.624;11.700;2024-03-22T08:01:50;11.55;;;5.03;;
63012;SDS011;62113;45.624;11.700;2024-03-22T08:04:15;7.82;;;4.35;;
63012;SDS011;62113;45.624;11.700;2024-03-22T08:06:41;7.25;;;4.43;;
63012;SDS011;62113;45.624;11.700;2024-03-22T08:09:07;8.10;;;5.63;;
63012;SDS011;62113;45.624;11.700;2024-03-22T08:11:33;6.35;;;5.30;;
63012;SDS011;62113;45.624;11.700;2024-03-22T08:13:58;10.38;;;7.38;;
63012;SDS011;62113;45.624;11.700;2024-03-22T08:16:31;11.23;;;8.40;;
63012;SDS011;62113;45.624;11.700;2024-03-22T08:18:56;9.93;;;4.93;;
63012;SDS011;62113;45.624;11.700;2024-03-22T08:21:22;9.90;;;4.18;;
63012;SDS011;62113;45.624;11.700;2024-03-22T08:23:49;9.95;;;4.20;;
63012;SDS011;62113;45.624;11.700;2024-03-22T08:26:16;4.97;;;3.30;;
63012;SDS011;62113;45.624;11.700;2024-03-22T08:28:41;4.47;;;3.60;;
63012;SDS011;62113;45.624;11.700;2024-03-22T08:31:07;6.63;;;3.67;;
63012;SDS011;62113;45.624;11.700;2024-03-22T08:33:33;4.82;;;3.67;;
63012;SDS011;62113;45.624;11.700;2024-03-22T08:35:58;3.75;;;2.40;;
63012;SDS011;62113;45.624;11.700;2024-03-22T08:38:25;6.35;;;2.70;;
63012;SDS011;62113;45.624;11.700;2024-03-22T08:40:52;9.38;;;3.28;;
63012;SDS011;62113;45.624;11.700;2024-03-22T08:43:17;10.77;;;3.38;;
63012;SDS011;62113;45.624;11.700;2024-03-22T08:45:43;13.52;;;3.70;;
63012;SDS011;62113;45.624;11.700;2024-03-22T08:48:08;9.55;;;3.22;;
63012;SDS011;62113;45.624;11.700;2024-03-22T08:50:34;2.97;;;2.47;;
63012;SDS011;62113;45.624;11.700;2024-03-22T08:53:00;2.80;;;2.60;;
63012;SDS011;62113;45.624;11.700;2024-03-22T08:55:29;5.18;;;2.60;;
63012;SDS011;62113;45.624;11.700;2024-03-22T08:57:55;7.38;;;3.22;;
63012;SDS011;62113;45.624;11.700;2024-03-22T09:00:21;3.97;;;3.20;;
63012;SDS011;62113;45.624;11.700;2024-03-22T09:02:46;6.63;;;3.20;;
63012;SDS011;62113;45.624;11.700;2024-03-22T09:05:12;5.93;;;3.60;;
63012;SDS011;62113;45.624;11.700;2024-03-22T09:07:38;11.60;;;3.40;;
63012;SDS011;62113;45.624;11.700;2024-03-22T09:12:31;8.15;;;3.55;;
63012;SDS011;62113;45.624;11.700;2024-03-22T09:14:56;6.18;;;3.88;;
63012;SDS011;62113;45.624;11.700;2024-03-22T09:17:22;6.05;;;3.78;;
63012;SDS011;62113;45.624;11.700;2024-03-22T09:19:47;6.20;;;3.70;;
63012;SDS011;62113;45.624;11.700;2024-03-22T09:22:13;7.03;;;4.70;;
63012;SDS011;62113;45.624;11.700;2024-03-22T09:24:40;6.93;;;5.00;;
63012;SDS011;62113;45.624;11.700;2024-03-22T09:27:05;6.55;;;4.65;;
63012;SDS011;62113;45.624;11.700;2024-03-22T09:29:33;6.43;;;4.47;;
63012;SDS011;62113;45.624;11.700;2024-03-22T09:32:00;9.10;;;4.75;;
63012;SDS011;62113;45.624;11.700;2024-03-22T09:34:25;5.57;;;4.17;;
63012;SDS011;62113;45.624;11.700;2024-03-22T09:36:51;8.73;;;3.87;;
63012;SDS011;62113;45.624;11.700;2024-03-22T09:39:16;6.60;;;3.80;;
63012;SDS011;62113;45.624;11.700;2024-03-22T09:41:43;6.10;;;4.93;;
63012;SDS011;62113;45.624;11.700;2024-03-22T09:44:12;6.10;;;4.55;;
63012;SDS011;62113;45.624;11.700;2024-03-22T09:46:41;5.43;;;4.90;;
63012;SDS011;62113;45.624;11.700;2024-03-22T09:49:08;9.18;;;5.68;;
63012;SDS011;62113;45.624;11.700;2024-03-22T09:51:36;8.23;;;5.50;;
63012;SDS011;62113;45.624;11.700;2024-03-22T09:58:55;5.72;;;5.00;;
63012;SDS011;62113;45.624;11.700;2024-03-22T10:01:21;8.57;;;4.93;;
63012;SDS011;62113;45.624;11.700;2024-03-22T10:03:48;7.10;;;5.50;;
63012;SDS011;62113;45.624;11.700;2024-03-22T10:06:16;7.10;;;5.72;;
63012;SDS011;62113;45.624;11.700;2024-03-22T10:08:42;6.88;;;5.55;;
63012;SDS011;62113;45.624;11.700;2024-03-22T10:11:08;10.40;;;7.37;;
63012;SDS011;62113;45.624;11.700;2024-03-22T10:13:33;7.67;;;5.73;;
63012;SDS011;62113;45.624;11.700;2024-03-22T10:15:59;4.60;;;3.57;;
63012;SDS011;62113;45.624;11.700;2024-03-22T10:18:25;6.93;;;5.07;;
63012;SDS011;62113;45.624;11.700;2024-03-22T10:21:01;5.05;;;4.32;;
63012;SDS011;62113;45.624;11.700;2024-03-22T10:23:28;6.63;;;4.72;;
63012;SDS011;62113;45.624;11.700;2024-03-22T10:25:57;6.68;;;4.03;;
63012;SDS011;62113;45.624;11.700;2024-03-22T10:28:23;6.22;;;5.45;;
63012;SDS011;62113;45.624;11.700;2024-03-22T10:30:50;9.40;;;5.60;;
63012;SDS011;62113;45.624;11.700;2024-03-22T10:33:18;7.22;;;4.50;;
63012;SDS011;62113;45.624;11.700;2024-03-22T10:35:44;4.95;;;4.43;;
63012;SDS011;62113;45.624;11.700;2024-03-22T10:38:14;5.10;;;4.10;;
63012;SDS011;62113;45.624;11.700;2024-03-22T10:40:44;6.60;;;3.08;;
63012;SDS011;62113;45.624;11.700;2024-03-22T10:43:12;4.47;;;3.83;;
63012;SDS011;62113;45.624;11.700;2024-03-22T10:45:38;4.07;;;3.20;;
63012;SDS011;62113;45.624;11.700;2024-03-22T10:48:06;4.28;;;3.25;;
63012;SDS011;62113;45.624;11.700;2024-03-22T10:50:34;2.35;;;2.15;;
63012;SDS011;62113;45.624;11.700;2024-03-22T10:53:03;2.53;;;2.03;;
63012;SDS011;62113;45.624;11.700;2024-03-22T10:58:00;4.45;;;2.13;;
63012;SDS011;62113;45.624;11.700;2024-03-22T11:00:29;2.17;;;2.00;;
63012;SDS011;62113;45.624;11.700;2024-03-22T11:02:56;3.40;;;2.35;;
63012;SDS011;62113;45.624;11.700;2024-03-22T11:05:22;3.47;;;3.00;;
63012;SDS011;62113;45.624;11.700;2024-03-22T11:07:57;7.03;;;4.13;;
63012;SDS011;62113;45.624;11.700;2024-03-22T11:10:29;5.13;;;3.63;;
63012;SDS011;62113;45.624;11.700;2024-03-22T11:12:56;5.22;;;3.92;;
63012;SDS011;62113;45.624;11.700;2024-03-22T11:15:25;6.38;;;4.35;;
63012;SDS011;62113;45.624;11.700;2024-03-22T11:17:51;6.63;;;4.23;;
63012;SDS011;62113;45.624;11.700;2024-03-22T11:20:16;5.17;;;4.20;;
63012;SDS011;62113;45.624;11.700;2024-03-22T11:22:42;9.33;;;5.60;;
63012;SDS011;62113;45.624;11.700;2024-03-22T11:25:08;7.28;;;5.72;;
63012;SDS011;62113;45.624;11.700;2024-03-22T11:27:34;10.57;;;6.20;;
63012;SDS011;62113;45.624;11.700;2024-03-22T11:29:59;6.80;;;5.43;;
63012;SDS011;62113;45.624;11.700;2024-03-22T11:32:25;10.63;;;6.90;;
63012;SDS011;62113;45.624;11.700;2024-03-22T11:34:51;11.07;;;6.88;;
63012;SDS011;62113;45.624;11.700;2024-03-22T11:37:16;8.23;;;6.63;;
63012;SDS011;62113;45.624;11.700;2024-03-22T11:39:42;9.77;;;7.00;;
63012;SDS011;62113;45.624;11.700;2024-03-22T11:42:08;9.23;;;6.60;;
63012;SDS011;62113;45.624;11.700;2024-03-22T11:44:36;8.57;;;6.45;;
63012;SDS011;62113;45.624;11.700;2024-03-22T11:47:04;8.02;;;5.20;;
63012;SDS011;62113;45.624;11.700;2024-03-22T11:49:29;9.88;;;7.05;;
63012;SDS011;62113;45.624;11.700;2024-03-22T11:51:55;13.07;;;6.23;;
63012;SDS011;62113;45.624;11.700;2024-03-22T11:56:48;7.05;;;5.90;;
63012;SDS011;62113;45.624;11.700;2024-03-22T11:59:14;11.27;;;7.03;;
63012;SDS011;62113;45.624;11.700;2024-03-22T12:01:42;9.53;;;6.27;;
63012;SDS011;62113;45.624;11.700;2024-03-22T12:04:08;10.88;;;7.30;;
63012;SDS011;62113;45.624;11.700;2024-03-22T12:06:40;7.65;;;5.68;;
63012;SDS011;62113;45.624;11.700;2024-03-22T12:09:09;6.80;;;5.38;;
63012;SDS011;62113;45.624;11.700;2024-03-22T12:11:37;8.85;;;6.80;;
63012;SDS011;62113;45.624;11.700;2024-03-22T12:14:03;12.63;;;6.63;;
63012;SDS011;62113;45.624;11.700;2024-03-22T12:16:28;13.77;;;6.63;;
63012;SDS011;62113;45.624;11.700;2024-03-22T12:18:54;11.20;;;6.37;;
63012;SDS011;62113;45.624;11.700;2024-03-22T12:21:19;8.50;;;5.63;;
63012;SDS011;62113;45.624;11.700;2024-03-22T12:23:45;7.80;;;5.83;;
63012;SDS011;62113;45.624;11.700;2024-03-22T12:26:10;6.50;;;5.67;;
63012;SDS011;62113;45.624;11.700;2024-03-22T12:28:36;9.57;;;6.03;;
63012;SDS011;62113;45.624;11.700;2024-03-22T12:31:02;7.83;;;6.60;;
63012;SDS011;62113;45.624;11.700;2024-03-22T12:33:29;9.93;;;6.60;;
63012;SDS011;62113;45.624;11.700;2024-03-22T12:35:55;10.17;;;7.50;;
63012;SDS011;62113;45.624;11.700;2024-03-22T12:38:20;11.47;;;6.43;;
63012;SDS011;62113;45.624;11.700;2024-03-22T12:40:46;6.83;;;5.83;;
63012;SDS011;62113;45.624;11.700;2024-03-22T12:43:12;11.20;;;8.00;;
63012;SDS011;62113;45.624;11.700;2024-03-22T12:45:37;9.63;;;7.00;;
63012;SDS011;62113;45.624;11.700;2024-03-22T12:48:03;14.53;;;7.03;;
63012;SDS011;62113;45.624;11.700;2024-03-22T12:52:55;12.38;;;6.65;;
63012;SDS011;62113;45.624;11.700;2024-03-22T12:55:21;8.97;;;6.67;;
63012;SDS011;62113;45.624;11.700;2024-03-22T12:57:47;11.38;;;7.90;;
63012;SDS011;62113;45.624;11.700;2024-03-22T13:00:12;13.97;;;8.37;;
63012;SDS011;62113;45.624;11.700;2024-03-22T13:02:43;12.70;;;7.85;;
63012;SDS011;62113;45.624;11.700;2024-03-22T13:05:11;8.27;;;6.88;;
63012;SDS011;62113;45.624;11.700;2024-03-22T13:07:38;12.23;;;7.35;;
63012;SDS011;62113;45.624;11.700;2024-03-22T13:10:04;7.28;;;6.40;;
63012;SDS011;62113;45.624;11.700;2024-03-22T13:12:30;8.68;;;6.93;;
63012;SDS011;62113;45.624;11.700;2024-03-22T13:14:56;11.00;;;7.10;;
63012;SDS011;62113;45.624;11.700;2024-03-22T13:17:22;8.65;;;6.18;;
63012;SDS011;62113;45.624;11.700;2024-03-22T13:19:48;11.27;;;5.97;;
63012;SDS011;62113;45.624;11.700;2024-03-22T13:22:14;13.10;;;7.57;;
63012;SDS011;62113;45.624;11.700;2024-03-22T13:24:43;7.85;;;6.40;;
63012;SDS011;62113;45.624;11.700;2024-03-22T13:27:11;11.27;;;7.57;;
63012;SDS011;62113;45.624;11.700;2024-03-22T13:29:38;9.77;;;7.00;;
63012;SDS011;62113;45.624;11.700;2024-03-22T13:32:04;8.75;;;7.10;;
63012;SDS011;62113;45.624;11.700;2024-03-22T13:34:31;11.15;;;7.55;;
63012;SDS011;62113;45.624;11.700;2024-03-22T13:37:01;10.35;;;7.25;;
63012;SDS011;62113;45.624;11.700;2024-03-22T13:39:27;10.95;;;6.25;;
63012;SDS011;62113;45.624;11.700;2024-03-22T13:41:56;15.60;;;7.38;;
63012;SDS011;62113;45.624;11.700;2024-03-22T13:44:22;11.65;;;7.10;;
63012;SDS011;62113;45.624;11.700;2024-03-22T13:46:51;9.85;;;6.85;;
63012;SDS011;62113;45.624;11.700;2024-03-22T13:49:17;9.45;;;6.97;;
63012;SDS011;62113;45.624;11.700;2024-03-22T13:54:09;9.10;;;6.20;;
63012;SDS011;62113;45.624;11.700;2024-03-22T13:56:36;10.38;;;6.95;;
63012;SDS011;62113;45.624;11.700;2024-03-22T13:59:03;7.63;;;5.75;;
63012;SDS011;62113;45.624;11.700;2024-03-22T14:01:30;7.80;;;5.85;;
63012;SDS011;62113;45.624;11.700;2024-03-22T14:03:57;9.60;;;5.55;;
63012;SDS011;62113;45.624;11.700;2024-03-22T14:06:22;7.43;;;5.83;;
63012;SDS011;62113;45.624;11.700;2024-03-22T14:08:48;8.60;;;5.83;;
63012;SDS011;62113;45.624;11.700;2024-03-22T14:11:13;8.80;;;5.90;;
63012;SDS011;62113;45.624;11.700;2024-03-22T14:13:39;11.97;;;6.20;;
63012;SDS011;62113;45.624;11.700;2024-03-22T14:16:05;8.67;;;5.70;;
63012;SDS011;62113;45.624;11.700;2024-03-22T14:18:33;8.65;;;6.47;;
63012;SDS011;62113;45.624;11.700;2024-03-22T14:21:00;9.65;;;6.57;;
63012;SDS011;62113;45.624;11.700;2024-03-22T14:23:26;10.05;;;6.07;;
63012;SDS011;62113;45.624;11.700;2024-03-22T14:25:52;9.80;;;6.00;;
63012;SDS011;62113;45.624;11.700;2024-03-22T14:28:17;7.00;;;5.60;;
63012;SDS011;62113;45.624;11.700;2024-03-22T14:30:43;8.53;;;5.87;;
63012;SDS011;62113;45.624;11.700;2024-03-22T14:33:08;8.37;;;5.57;;
63012;SDS011;62113;45.624;11.700;2024-03-22T14:35:34;8.57;;;5.60;;
63012;SDS011;62113;45.624;11.700;2024-03-22T14:38:00;7.70;;;5.80;;
63012;SDS011;62113;45.624;11.700;2024-03-22T14:40:25;7.13;;;5.00;;
63012;SDS011;62113;45.624;11.700;2024-03-22T14:42:51;9.50;;;5.60;;